METAR Reports From Nearby Airports

 

KLUD - Decatur, Texas, USA
Distance from Wildwood: ESE 5mi, 8km
Actualización: Nov 19, 2019 9:35pm
Despejado
Despejado
 Viento del SSE
Viento: SSE 10 mph , 17 km/h
Temperatura: 64°F , 18°C
Rocío: 46°F , 8°C
Humedad: 52%
Barómetro: 29.91 inHg , 1012.9 hPa
Clouds: Despejado
Visibility: 10 miles , 16 km
2019/11/20 03:35 KLUD 200335Z AUTO 15009KT 10SM CLR 18/08 A2991 RMK AO2 T01770082
KXBP - Bridgeport, Texas, USA
Distance from Wildwood: OSO 11mi, 18km
Actualización: Nov 19, 2019 9:35pm
Despejado
Despejado
 Viento del SSE
Viento: SSE 12 mph , 19 km/h, Racha: 16 mph , 26 km/h
Temperatura: 64°F , 18°C
Rocío: 46°F , 8°C
Humedad: 52%
Barómetro: 29.91 inHg , 1012.9 hPa
Clouds: Despejado
Visibility: 10 miles , 16 km
2019/11/20 03:35 KXBP 200335Z AUTO 16010G14KT 10SM CLR 18/08 A2991 RMK AO2 T01820082
 
K0F2 - Bowie, Texas, USA
Distance from Wildwood: NNO 24mi, 39km
Actualización: Nov 19, 2019 9:35pm
Despejado
Despejado
 Viento del SSE
Viento: SSE 12 mph , 19 km/h, Racha: 16 mph , 26 km/h
Temperatura: 68°F , 20°C
Rocío: 50°F , 10°C
Humedad: 53%
Barómetro: 29.90 inHg , 1012.5 hPa
Clouds: Despejado
Visibility: 10 miles , 16 km
2019/11/20 03:35 K0F2 200335Z AUTO 16010G14KT 10SM CLR 20/10 A2990 RMK AO2 T02000096
KDTO - Denton, Texas, USA
Distance from Wildwood: E 27mi, 44km
Actualización: Nov 19, 2019 8:53pm
Despejado
Despejado
 Viento del SSE
Viento: SSE 10 mph , 17 km/h
Temperatura: 64°F , 18°C
Rocío: 46°F , 8°C
Humedad: 52%
Barómetro: 29.92 inHg , 1013.2 hPa
Clouds: Despejado
Visibility: 10 miles , 16 km
2019/11/20 02:53 KDTO 200253Z 16009KT 10SM CLR 18/08 A2992 RMK AO2 SLP127 T01830078 53012
 
KAFW - Ft Worth/Allianc, Texas, USA
Distance from Wildwood: SE 29mi, 46km
Actualización: Nov 19, 2019 8:53pm
Partly Cloudy
Partly Cloudy
 Viento del S
Viento: S 15 mph , 24 km/h
Temperatura: 66°F , 19°C
Rocío: 46°F , 8°C
Humedad: 49%
Barómetro: 29.91 inHg , 1012.9 hPa
Clouds: Partly Cloudy
Visibility: 10 miles , 16 km
Cloud details: Partly Cloudy 30000 ft
2019/11/20 02:53 KAFW 200253Z 17013KT 10SM SCT300 19/08 A2991 RMK AO2 SLP123 T01940083 51011
KFTW - Fort Worth, Texas, USA
Distance from Wildwood: SSE 34mi, 55km
Actualización: Nov 19, 2019 8:53pm
Despejado
Despejado
 Viento del SSE
Viento: SSE 15 mph , 24 km/h
Temperatura: 66°F , 19°C
Rocío: 48°F , 9°C
Humedad: 52%
Barómetro: 29.91 inHg , 1012.9 hPa
Clouds: Despejado
Visibility: 10 miles , 16 km
2019/11/20 02:53 KFTW 200253Z 16013KT 10SM CLR 19/09 A2991 RMK AO2 SLP125 T01890094 53013
 
KNFW - Fort Worth Nas, Texas, USA
Distance from Wildwood: SSE 36mi, 58km
Actualización: Nov 19, 2019 8:52pm
Few Clouds
Few Clouds
 Viento del SSE
Viento: SSE 12 mph , 19 km/h
Temperatura: 68°F , 20°C
Rocío: 46°F , 8°C
Humedad: 46%
Barómetro: 29.92 inHg , 1013.2 hPa
Clouds: Few Clouds
Visibility: 10 miles , 16 km
Cloud details: Few Clouds 25000 ft
2019/11/20 02:52 KNFW 200252Z 16010KT 10SM FEW250 20/08 A2992 RMK AO2 SLP116 T02060078 53013 VISNO N $
KGLE - Gainesville, Texas, USA
Distance from Wildwood: NE 38mi, 61km
Actualización: Nov 19, 2019 9:35pm
Despejado
Despejado
 Viento del SSE
Viento: SSE 7 mph , 11 km/h
Temperatura: 57°F , 14°C
Rocío: 43°F , 6°C
Humedad: 59%
Barómetro: 29.93 inHg , 1013.5 hPa
Clouds: Despejado
Visibility: 10 miles , 16 km
2019/11/20 03:35 KGLE 200335Z AUTO 15006KT 10SM CLR 14/06 A2993 RMK AO2 T01430060 PWINO
 
KMWL - Mineral Wells, Texas, USA
Distance from Wildwood: SO 41mi, 65km
Actualización: Nov 19, 2019 8:53pm
Despejado
Despejado
 Viento del SSE
Viento: SSE 13 mph , 20 km/h
Temperatura: 64°F , 18°C
Rocío: 46°F , 8°C
Humedad: 52%
Barómetro: 29.89 inHg , 1012.2 hPa
Clouds: Despejado
Visibility: 10 miles , 16 km
2019/11/20 02:53 KMWL 200253Z AUTO 16011KT 10SM CLR 18/08 A2989 RMK AO2 SLP115 T01780078 53010
KDFW - Dallas/Ft Worth, Texas, USA
Distance from Wildwood: ESE 45mi, 73km
Actualización: Nov 19, 2019 8:53pm
Despejado
Despejado
 Viento del S
Viento: S 14 mph , 22 km/h
Temperatura: 66°F , 19°C
Rocío: 46°F , 8°C
Humedad: 49%
Barómetro: 29.91 inHg , 1012.9 hPa
Clouds: Despejado
Visibility: 10 miles , 16 km
2019/11/20 02:53 KDFW 200253Z 17012KT 10SM CLR 19/08 A2991 RMK AO2 SLP123 T01890078 53012